Duquesne, Missouri
Current Conditions -  °F | °C
As of 10:53 PM on Saturday 22 Nov 2014 (Local Time) from KJLN Reporting Station
Clear Clear  
Wind Chill: 56°   Ceiling: Unl
Heat Index: 56°   Visibility: 10mi
Dew Point: 52°   Wind: 9mph
Humidity: 87%   Direction: 150°SSE
Pressure: 29.73"   Gusts: NA
Location:  37.1074°N, 94.5218°W
Report Text: KJLN 230453Z AUTO 15008KT 10SM CLR 13/11 A2973 RMK AO2 SLP065 T01330111
Loading
Personal Weather Stations






























Interactive Weather Map New forecast layout! Learn more

10-Day Weather Forecast

Advertisements
Track Severe Weather on mobile